createdAt,value
2018-06-25T00:00:49.318Z,0.00
2018-06-25T00:01:49.324Z,0.00
2018-06-25T00:02:49.235Z,0.00
2018-06-25T00:03:49.231Z,0.00
2018-06-25T00:04:49.172Z,0.00
2018-06-25T00:05:49.133Z,0.00
2018-06-25T00:06:49.125Z,0.00
2018-06-25T00:07:49.053Z,0.00
2018-06-25T00:08:49.028Z,0.00
2018-06-25T00:09:48.984Z,0.00
2018-06-25T00:10:48.960Z,0.00
2018-06-25T00:11:48.959Z,0.00
2018-06-25T00:12:48.899Z,0.00
2018-06-25T00:13:48.834Z,0.00
2018-06-25T00:14:48.795Z,0.00
2018-06-25T00:15:48.738Z,0.00
2018-06-25T00:16:48.708Z,0.00
2018-06-25T00:17:48.720Z,0.00
2018-06-25T00:18:48.624Z,0.00
2018-06-25T00:19:48.626Z,0.00
2018-06-25T00:20:48.568Z,0.00
2018-06-25T00:21:48.522Z,0.00
2018-06-25T00:22:48.542Z,0.00
2018-06-25T00:23:48.434Z,0.00
2018-06-25T00:24:48.409Z,0.00
2018-06-25T00:25:48.390Z,0.00
2018-06-25T00:26:48.323Z,0.00
2018-06-25T00:27:48.277Z,0.00
2018-06-25T00:28:48.282Z,0.00
2018-06-25T00:29:48.208Z,0.00
2018-06-25T00:30:48.175Z,0.00
2018-06-25T00:31:48.153Z,0.00
2018-06-25T00:32:48.108Z,0.00
2018-06-25T00:33:48.093Z,0.00
2018-06-25T00:34:48.038Z,0.00
2018-06-25T00:35:47.994Z,0.00
2018-06-25T00:36:47.928Z,0.00
2018-06-25T00:37:47.904Z,0.00
2018-06-25T00:38:47.889Z,0.00
2018-06-25T00:39:47.816Z,0.00
2018-06-25T00:40:47.777Z,0.00
2018-06-25T00:41:47.755Z,0.00
2018-06-25T00:42:47.709Z,0.00
2018-06-25T00:43:57.368Z,0.00
2018-06-25T00:44:47.644Z,0.00
2018-06-25T00:45:47.589Z,0.00
2018-06-25T00:46:47.597Z,0.00
2018-06-25T00:47:47.504Z,0.00
2018-06-25T00:48:47.475Z,0.00
2018-06-25T00:49:47.473Z,0.00
2018-06-25T00:50:47.405Z,0.00
2018-06-25T00:51:47.353Z,0.00
2018-06-25T00:52:47.323Z,0.00
2018-06-25T00:53:47.288Z,0.00
2018-06-25T00:54:47.292Z,0.00
2018-06-25T00:55:47.219Z,0.00
2018-06-25T00:56:47.171Z,0.00
2018-06-25T00:57:47.143Z,0.00
2018-06-25T00:58:47.100Z,0.00
2018-06-25T00:59:47.074Z,0.00
2018-06-25T01:00:47.009Z,0.00
2018-06-25T01:01:46.975Z,0.00
2018-06-25T01:02:46.961Z,0.00
2018-06-25T01:03:46.907Z,0.00
2018-06-25T01:04:46.852Z,0.00
2018-06-25T01:05:46.836Z,0.00
2018-06-25T01:06:46.776Z,0.00
2018-06-25T01:07:56.935Z,0.00
2018-06-25T01:08:46.704Z,0.00
2018-06-25T01:09:46.673Z,0.00
2018-06-25T01:10:46.637Z,0.00
2018-06-25T01:11:46.611Z,0.00
2018-06-25T01:12:46.548Z,0.00
2018-06-25T01:13:46.532Z,0.00
2018-06-25T01:14:46.486Z,0.00
2018-06-25T01:15:46.460Z,0.00
2018-06-25T01:16:46.386Z,0.00
2018-06-25T01:17:46.368Z,0.00
2018-06-25T01:18:46.337Z,0.00
2018-06-25T01:19:46.314Z,0.00
2018-06-25T01:20:46.243Z,0.00
2018-06-25T01:21:46.234Z,0.00
2018-06-25T01:22:46.178Z,0.00
2018-06-25T01:23:46.132Z,0.00
2018-06-25T01:24:46.102Z,0.00
2018-06-25T01:25:46.048Z,0.00
2018-06-25T01:26:46.038Z,0.00
2018-06-25T01:27:45.961Z,0.00
2018-06-25T01:28:45.940Z,0.00
2018-06-25T01:29:45.912Z,0.00
2018-06-25T01:30:45.868Z,0.00
2018-06-25T01:31:45.847Z,0.00
2018-06-25T01:32:45.826Z,0.00
2018-06-25T01:33:45.764Z,0.00
2018-06-25T01:34:45.724Z,0.00
2018-06-25T01:35:45.700Z,0.00
2018-06-25T01:36:45.629Z,0.00
2018-06-25T01:37:45.607Z,0.00
2018-06-25T01:38:45.566Z,0.00
2018-06-25T01:39:45.527Z,0.00
2018-06-25T01:40:45.456Z,0.00
2018-06-25T01:41:45.452Z,0.00
2018-06-25T01:42:45.428Z,0.00
2018-06-25T01:43:45.363Z,0.00
2018-06-25T01:44:45.328Z,0.00
2018-06-25T01:45:45.282Z,0.00
2018-06-25T01:46:45.241Z,0.00
2018-06-25T01:47:45.235Z,0.00
2018-06-25T01:48:45.159Z,0.00
2018-06-25T01:49:45.136Z,0.00
2018-06-25T01:50:45.086Z,0.00
2018-06-25T01:51:45.065Z,0.00
2018-06-25T01:52:45.057Z,0.00
2018-06-25T01:53:44.973Z,0.00
2018-06-25T01:54:44.931Z,0.00
2018-06-25T01:55:44.905Z,0.00
2018-06-25T01:56:44.853Z,0.00
2018-06-25T01:57:44.811Z,0.00
2018-06-25T01:58:44.807Z,0.00
2018-06-25T01:59:44.724Z,0.00
2018-06-25T02:00:44.742Z,0.00
2018-06-25T02:01:44.647Z,0.00
2018-06-25T02:02:44.625Z,0.00
2018-06-25T02:03:44.612Z,0.00
2018-06-25T02:04:44.547Z,0.00
2018-06-25T02:05:44.499Z,0.00
2018-06-25T02:06:44.472Z,0.00
2018-06-25T02:07:44.434Z,0.00
2018-06-25T02:08:44.418Z,0.00
2018-06-25T02:09:44.349Z,0.00
2018-06-25T02:10:44.333Z,0.00
2018-06-25T02:11:44.325Z,0.00
2018-06-25T02:12:44.241Z,0.00
2018-06-25T02:13:44.207Z,0.00
2018-06-25T02:14:44.204Z,0.00
2018-06-25T02:15:44.141Z,0.00
2018-06-25T02:16:44.117Z,0.00
2018-06-25T02:17:44.045Z,0.00
2018-06-25T02:18:44.043Z,0.00
2018-06-25T02:19:54.979Z,0.00
2018-06-25T02:20:43.923Z,0.00
2018-06-25T02:21:43.934Z,0.00
2018-06-25T02:22:43.913Z,0.00
2018-06-25T02:23:43.828Z,0.00
2018-06-25T02:24:43.788Z,0.00
2018-06-25T02:25:43.728Z,0.00
2018-06-25T02:26:43.696Z,0.00
2018-06-25T02:27:43.655Z,0.00
2018-06-25T02:28:43.622Z,0.00
2018-06-25T02:29:43.609Z,0.00
2018-06-25T02:30:43.550Z,0.00
2018-06-25T02:31:43.515Z,0.00
2018-06-25T02:32:43.448Z,0.00
2018-06-25T02:33:43.437Z,0.00
2018-06-25T02:34:43.417Z,0.00
2018-06-25T02:35:43.392Z,0.00
2018-06-25T02:36:43.344Z,0.00
2018-06-25T02:37:43.309Z,0.00
2018-06-25T02:38:43.324Z,0.00
2018-06-25T02:39:43.200Z,0.00
2018-06-25T02:40:43.182Z,0.00
2018-06-25T02:41:43.110Z,0.00
2018-06-25T02:42:43.098Z,0.00
2018-06-25T02:43:43.033Z,0.00
2018-06-25T02:44:42.988Z,0.00
2018-06-25T02:45:43.007Z,0.00
2018-06-25T02:46:42.938Z,0.00
2018-06-25T02:47:42.901Z,0.00
2018-06-25T02:48:42.853Z,0.00
2018-06-25T02:49:42.835Z,4.00
2018-06-25T02:50:42.788Z,4.00
2018-06-25T02:51:42.749Z,4.00
2018-06-25T02:52:42.698Z,4.00
2018-06-25T02:53:42.667Z,0.00
2018-06-25T02:54:42.642Z,4.00
2018-06-25T02:55:42.563Z,4.00
2018-06-25T02:56:42.550Z,4.00
2018-06-25T02:57:42.500Z,0.00
2018-06-25T02:58:42.461Z,4.00
2018-06-25T02:59:42.415Z,0.00
2018-06-25T03:00:42.376Z,4.00
2018-06-25T03:01:42.366Z,8.00
2018-06-25T03:02:42.298Z,4.00
2018-06-25T03:03:42.267Z,8.00
2018-06-25T03:04:42.234Z,8.00
2018-06-25T03:05:42.188Z,8.00
2018-06-25T03:06:42.186Z,8.00
2018-06-25T03:07:42.113Z,12.00
2018-06-25T03:08:42.070Z,12.00
2018-06-25T03:09:42.018Z,12.00
2018-06-25T03:10:41.988Z,16.00
2018-06-25T03:11:41.953Z,20.00
2018-06-25T03:12:41.964Z,20.00
2018-06-25T03:13:41.869Z,24.00
2018-06-25T03:14:41.833Z,28.00
2018-06-25T03:15:41.806Z,28.00
2018-06-25T03:16:41.758Z,28.00
2018-06-25T03:17:41.761Z,32.00
2018-06-25T03:18:41.679Z,40.00
2018-06-25T03:19:41.677Z,48.00
2018-06-25T03:20:41.610Z,52.00
2018-06-25T03:21:41.581Z,56.00
2018-06-25T03:22:41.554Z,60.00
2018-06-25T03:23:41.489Z,60.00
2018-06-25T03:24:41.453Z,68.00
2018-06-25T03:25:41.418Z,80.00
2018-06-25T03:26:41.396Z,92.00
2018-06-25T03:27:41.346Z,104.00
2018-06-25T03:28:41.328Z,124.00
2018-06-25T03:29:41.274Z,156.00
2018-06-25T03:30:41.236Z,180.00
2018-06-25T03:31:53.556Z,204.00
2018-06-25T03:32:41.134Z,232.00
2018-06-25T03:33:41.124Z,264.00
2018-06-25T03:34:41.065Z,308.00
2018-06-25T03:35:41.017Z,300.00
2018-06-25T03:36:40.985Z,296.00
2018-06-25T03:37:40.948Z,312.00
2018-06-25T03:38:40.941Z,336.00
2018-06-25T03:39:40.857Z,380.00
2018-06-25T03:40:40.819Z,392.00
2018-06-25T03:41:40.827Z,360.00
2018-06-25T03:42:40.766Z,352.00
2018-06-25T03:43:40.736Z,344.00
2018-06-25T03:44:40.705Z,324.00
2018-06-25T03:45:40.631Z,280.00
2018-06-25T03:46:40.605Z,260.00
2018-06-25T03:47:40.566Z,272.00
2018-06-25T03:48:40.511Z,288.00
2018-06-25T03:49:40.528Z,316.00
2018-06-25T03:50:40.453Z,344.00
2018-06-25T03:51:40.445Z,416.00
2018-06-25T03:52:40.349Z,456.00
2018-06-25T03:53:40.318Z,452.00
2018-06-25T03:54:40.318Z,420.00
2018-06-25T03:55:40.241Z,448.00
2018-06-25T03:56:40.222Z,476.00
2018-06-25T03:57:40.164Z,452.00
2018-06-25T03:58:40.124Z,468.00
2018-06-25T03:59:40.179Z,532.00
2018-06-25T04:00:40.059Z,572.00
2018-06-25T04:01:40.012Z,552.00
2018-06-25T04:02:39.981Z,564.00
2018-06-25T04:03:39.989Z,628.00
2018-06-25T04:04:39.904Z,680.00
2018-06-25T04:05:39.914Z,676.00
2018-06-25T04:06:39.814Z,580.00
2018-06-25T04:07:39.811Z,580.00
2018-06-25T04:08:39.738Z,696.00
2018-06-25T04:09:39.727Z,656.00
2018-06-25T04:10:39.720Z,616.00
2018-06-25T04:11:39.641Z,596.00
2018-06-25T04:12:39.600Z,540.00
2018-06-25T04:13:39.566Z,540.00
2018-06-25T04:14:39.522Z,676.00
2018-06-25T04:15:39.585Z,816.00
2018-06-25T04:16:39.419Z,1004.00
2018-06-25T04:17:39.391Z,1288.00
2018-06-25T04:18:39.384Z,1480.00
2018-06-25T04:19:39.315Z,1848.00
2018-06-25T04:20:39.288Z,2324.00
2018-06-25T04:21:39.275Z,2504.00
2018-06-25T04:22:39.213Z,2448.00
2018-06-25T04:23:39.208Z,2324.00
2018-06-25T04:24:39.127Z,2200.00
2018-06-25T04:25:39.077Z,2184.00
2018-06-25T04:26:39.076Z,2232.00
2018-06-25T04:27:39.000Z,2308.00
2018-06-25T04:28:38.970Z,2392.00
2018-06-25T04:29:38.931Z,2432.00
2018-06-25T04:30:38.942Z,2492.00
2018-06-25T04:31:38.890Z,2616.00
2018-06-25T04:32:38.820Z,3028.00
2018-06-25T04:33:38.791Z,3368.00
2018-06-25T04:34:38.772Z,3364.00
2018-06-25T04:35:38.701Z,3236.00
2018-06-25T04:36:38.691Z,3036.00
2018-06-25T04:37:38.641Z,3000.00
2018-06-25T04:38:38.575Z,3044.00
2018-06-25T04:39:38.548Z,2904.00
2018-06-25T04:40:38.527Z,2476.00
2018-06-25T04:41:38.472Z,1884.00
2018-06-25T04:42:38.471Z,1784.00
2018-06-25T04:43:38.403Z,1940.00
2018-06-25T04:44:38.361Z,2516.00
2018-06-25T04:45:38.323Z,3164.00
2018-06-25T04:46:38.298Z,3316.00
2018-06-25T04:47:38.258Z,3364.00
2018-06-25T04:48:38.200Z,3552.00
2018-06-25T04:49:38.194Z,3556.00
2018-06-25T04:50:38.188Z,3532.00
2018-06-25T04:51:38.109Z,3660.00
2018-06-25T04:52:38.086Z,3716.00
2018-06-25T04:53:37.997Z,3676.00
2018-06-25T04:54:38.004Z,3448.00
2018-06-25T04:55:37.930Z,3072.00
2018-06-25T04:56:37.889Z,2956.00
2018-06-25T04:57:37.838Z,2736.00
2018-06-25T04:58:37.834Z,2560.00
2018-06-25T04:59:37.779Z,2340.00
2018-06-25T05:00:37.737Z,2384.00
2018-06-25T05:01:37.693Z,2652.00
2018-06-25T05:02:37.670Z,2756.00
2018-06-25T05:03:37.681Z,3044.00
2018-06-25T05:04:37.587Z,3248.00
2018-06-25T05:05:37.580Z,3652.00
2018-06-25T05:06:37.503Z,3944.00
2018-06-25T05:07:37.471Z,3716.00
2018-06-25T05:08:37.463Z,3620.00
2018-06-25T05:09:37.382Z,3508.00
2018-06-25T05:10:37.375Z,3312.00
2018-06-25T05:11:37.353Z,3484.00
2018-06-25T05:12:37.329Z,3912.00
2018-06-25T05:13:37.238Z,4344.00
2018-06-25T05:14:37.227Z,4592.00
2018-06-25T05:15:37.177Z,4680.00
2018-06-25T05:16:37.128Z,4460.00
2018-06-25T05:17:37.083Z,4176.00
2018-06-25T05:18:37.063Z,4144.00
2018-06-25T05:19:37.026Z,3968.00
2018-06-25T05:20:36.975Z,3732.00
2018-06-25T05:21:36.936Z,3572.00
2018-06-25T05:22:36.929Z,3700.00
2018-06-25T05:23:36.931Z,4072.00
2018-06-25T05:24:36.867Z,4104.00
2018-06-25T05:25:36.785Z,4140.00
2018-06-25T05:26:36.760Z,3956.00
2018-06-25T05:27:36.703Z,3688.00
2018-06-25T05:28:36.671Z,3428.00
2018-06-25T05:29:36.682Z,3560.00
2018-06-25T05:30:47.173Z,3656.00
2018-06-25T05:31:36.565Z,2980.00
2018-06-25T05:32:36.525Z,2644.00
2018-06-25T05:33:36.467Z,2424.00
2018-06-25T05:34:36.465Z,2164.00
2018-06-25T05:35:36.418Z,2004.00
2018-06-25T05:36:36.371Z,2284.00
2018-06-25T05:37:36.340Z,2276.00
2018-06-25T05:38:36.283Z,2328.00
2018-06-25T05:39:36.257Z,2628.00
2018-06-25T05:40:36.228Z,2812.00
2018-06-25T05:41:36.187Z,3540.00
2018-06-25T05:42:36.150Z,3936.00
2018-06-25T05:43:36.108Z,3320.00
2018-06-25T05:44:36.068Z,2640.00
2018-06-25T05:45:36.058Z,2448.00
2018-06-25T05:46:35.996Z,2492.00
2018-06-25T05:47:35.962Z,2124.00
2018-06-25T05:48:35.931Z,2064.00
2018-06-25T05:49:35.881Z,2128.00
2018-06-25T05:50:35.854Z,2124.00
2018-06-25T05:51:35.823Z,2228.00
2018-06-25T05:52:35.780Z,2644.00
2018-06-25T05:53:35.749Z,2792.00
2018-06-25T05:54:47.053Z,3188.00
2018-06-25T05:55:35.661Z,4460.00
2018-06-25T05:56:35.640Z,6132.00
2018-06-25T05:57:35.856Z,6404.00
2018-06-25T05:58:35.519Z,5772.00
2018-06-25T05:59:35.491Z,5820.00
2018-06-25T06:00:35.449Z,5208.00
2018-06-25T06:01:35.453Z,5152.00
2018-06-25T06:02:35.379Z,5124.00
2018-06-25T06:03:35.356Z,5064.00
2018-06-25T06:04:35.313Z,5948.00
2018-06-25T06:05:35.280Z,6524.00
2018-06-25T06:06:35.265Z,5580.00
2018-06-25T06:07:35.196Z,5848.00
2018-06-25T06:08:35.155Z,6432.00
2018-06-25T06:09:35.126Z,7568.00
2018-06-25T06:10:35.082Z,8268.00
2018-06-25T06:11:35.048Z,7660.00
2018-06-25T06:12:35.028Z,7256.00
2018-06-25T06:13:34.968Z,7268.00
2018-06-25T06:14:34.924Z,7320.00
2018-06-25T06:15:34.914Z,6980.00
2018-06-25T06:16:34.849Z,5432.00
2018-06-25T06:17:34.855Z,4168.00
2018-06-25T06:18:34.785Z,3456.00
2018-06-25T06:19:34.752Z,2380.00
2018-06-25T06:20:34.730Z,2292.00
2018-06-25T06:21:34.676Z,3000.00
2018-06-25T06:22:34.669Z,3644.00
2018-06-25T06:23:34.590Z,3708.00
2018-06-25T06:24:34.571Z,3972.00
2018-06-25T06:25:34.536Z,5708.00
2018-06-25T06:26:34.503Z,8340.00
2018-06-25T06:27:34.447Z,9416.00
2018-06-25T06:28:34.458Z,8264.00
2018-06-25T06:29:34.379Z,7400.00
2018-06-25T06:30:34.333Z,6992.00
2018-06-25T06:31:34.305Z,6776.00
2018-06-25T06:32:34.278Z,7112.00
2018-06-25T06:33:34.256Z,7908.00
2018-06-25T06:34:34.200Z,9104.00
2018-06-25T06:35:34.157Z,9392.00
2018-06-25T06:36:34.126Z,8176.00
2018-06-25T06:37:34.109Z,8244.00
2018-06-25T06:38:34.077Z,7784.00
2018-06-25T06:39:34.000Z,6848.00
2018-06-25T06:40:33.965Z,5880.00
2018-06-25T06:41:33.947Z,5624.00
2018-06-25T06:42:33.887Z,5884.00
2018-06-25T06:43:33.876Z,6236.00
2018-06-25T06:44:33.827Z,6704.00
2018-06-25T06:45:33.790Z,6784.00
2018-06-25T06:46:33.766Z,6240.00
2018-06-25T06:47:33.710Z,6020.00
2018-06-25T06:48:33.686Z,6272.00
2018-06-25T06:49:33.650Z,7076.00
2018-06-25T06:50:33.609Z,7488.00
2018-06-25T06:51:33.632Z,7136.00
2018-06-25T06:52:33.518Z,7144.00
2018-06-25T06:53:33.531Z,6596.00
2018-06-25T06:54:33.478Z,6132.00
2018-06-25T06:55:33.411Z,6392.00
2018-06-25T06:56:33.372Z,6400.00
2018-06-25T06:57:33.369Z,6112.00
2018-06-25T06:58:33.304Z,5560.00
2018-06-25T06:59:33.273Z,5580.00
2018-06-25T07:00:33.252Z,5772.00
2018-06-25T07:01:33.172Z,6132.00
2018-06-25T07:02:33.157Z,5748.00
2018-06-25T07:03:33.124Z,5532.00
2018-06-25T07:04:33.107Z,6072.00
2018-06-25T07:05:33.028Z,6364.00
2018-06-25T07:06:32.990Z,5880.00
2018-06-25T07:07:32.959Z,6060.00
2018-06-25T07:08:32.941Z,6012.00
2018-06-25T07:09:32.917Z,5400.00
2018-06-25T07:10:32.840Z,5708.00
2018-06-25T07:11:32.822Z,6244.00
2018-06-25T07:12:32.787Z,6252.00
2018-06-25T07:13:32.754Z,6060.00
2018-06-25T07:14:32.727Z,5728.00
2018-06-25T07:15:32.669Z,5308.00
2018-06-25T07:16:32.637Z,5556.00
2018-06-25T07:17:32.651Z,5936.00
2018-06-25T07:18:32.557Z,6784.00
2018-06-25T07:19:32.535Z,7144.00
2018-06-25T07:20:32.513Z,7408.00
2018-06-25T07:21:32.467Z,7760.00
2018-06-25T07:22:32.413Z,8380.00
2018-06-25T07:23:32.372Z,9480.00
2018-06-25T07:24:32.352Z,9716.00
2018-06-25T07:25:32.315Z,9672.00
2018-06-25T07:26:32.259Z,8896.00
2018-06-25T07:27:32.220Z,7236.00
2018-06-25T07:28:32.202Z,5772.00
2018-06-25T07:29:42.676Z,5480.00
2018-06-25T07:30:32.230Z,5340.00
2018-06-25T07:31:32.082Z,5036.00
2018-06-25T07:32:32.029Z,4876.00
2018-06-25T07:33:32.154Z,4840.00
2018-06-25T07:34:31.958Z,5536.00
2018-06-25T07:35:31.943Z,5764.00
2018-06-25T07:36:31.909Z,5944.00
2018-06-25T07:37:31.850Z,7320.00
2018-06-25T07:38:31.833Z,9156.00
2018-06-25T07:39:31.811Z,10424.00
2018-06-25T07:40:31.730Z,11036.00
2018-06-25T07:41:31.730Z,11364.00
2018-06-25T07:42:31.650Z,11096.00
2018-06-25T07:43:31.619Z,9740.00
2018-06-25T07:44:31.603Z,7756.00
2018-06-25T07:45:31.539Z,6024.00
2018-06-25T07:46:31.555Z,5052.00
2018-06-25T07:47:31.495Z,4524.00
2018-06-25T07:48:31.430Z,4740.00
2018-06-25T07:49:31.405Z,5884.00
2018-06-25T07:50:31.377Z,8600.00
2018-06-25T07:51:31.382Z,10436.00
2018-06-25T07:52:41.811Z,12528.00
2018-06-25T07:53:31.327Z,13724.00
2018-06-25T07:54:31.219Z,13552.00
2018-06-25T07:55:31.436Z,11484.00
2018-06-25T07:56:31.158Z,7852.00
2018-06-25T07:57:31.170Z,6484.00
2018-06-25T07:58:31.069Z,6300.00
2018-06-25T07:59:31.013Z,6412.00
2018-06-25T08:00:30.993Z,5984.00
2018-06-25T08:01:30.968Z,7136.00
2018-06-25T08:02:30.944Z,7984.00
2018-06-25T08:03:30.909Z,8340.00
2018-06-25T08:04:30.856Z,8264.00
2018-06-25T08:05:30.804Z,8108.00
2018-06-25T08:06:30.761Z,8220.00
2018-06-25T08:07:30.778Z,8868.00
2018-06-25T08:08:30.706Z,8192.00
2018-06-25T08:09:30.750Z,7700.00
2018-06-25T08:10:30.639Z,8732.00
2018-06-25T08:11:30.641Z,10932.00
2018-06-25T08:12:30.606Z,12788.00
2018-06-25T08:13:30.513Z,13932.00
2018-06-25T08:14:30.524Z,14156.00
2018-06-25T08:15:30.493Z,15328.00
2018-06-25T08:16:40.758Z,15124.00
2018-06-25T08:17:30.443Z,15052.00
2018-06-25T08:18:30.377Z,14704.00
2018-06-25T08:19:30.294Z,14568.00
2018-06-25T08:20:30.718Z,14604.00
2018-06-25T08:21:30.218Z,14148.00
2018-06-25T08:22:30.189Z,13608.00
2018-06-25T08:23:30.163Z,13420.00
2018-06-25T08:24:30.151Z,12296.00
2018-06-25T08:25:30.081Z,10124.00
2018-06-25T08:26:30.070Z,8692.00
2018-06-25T08:27:30.047Z,8032.00
2018-06-25T08:28:30.026Z,8304.00
2018-06-25T08:29:29.968Z,9712.00
2018-06-25T08:30:29.907Z,10868.00
2018-06-25T08:31:29.866Z,12128.00
2018-06-25T08:32:29.826Z,11968.00
2018-06-25T08:33:29.879Z,11004.00
2018-06-25T08:34:29.818Z,11132.00
2018-06-25T08:35:29.728Z,11628.00
2018-06-25T08:36:29.678Z,12020.00
2018-06-25T08:37:29.671Z,12460.00
2018-06-25T08:38:29.645Z,11384.00
2018-06-25T08:39:29.614Z,11924.00
2018-06-25T08:40:29.546Z,11428.00
2018-06-25T08:41:29.533Z,10428.00
2018-06-25T08:42:29.459Z,10788.00
2018-06-25T08:43:29.505Z,9384.00
2018-06-25T08:44:29.429Z,8284.00
2018-06-25T08:45:29.360Z,6684.00
2018-06-25T08:46:29.334Z,6536.00
2018-06-25T08:47:29.288Z,6860.00
2018-06-25T08:48:29.276Z,7732.00
2018-06-25T08:49:29.247Z,7968.00
2018-06-25T08:50:29.170Z,7320.00
2018-06-25T08:51:29.150Z,6356.00
2018-06-25T08:52:29.143Z,5960.00
2018-06-25T08:53:29.090Z,5880.00
2018-06-25T08:54:29.053Z,6424.00
2018-06-25T08:55:29.039Z,7060.00
2018-06-25T08:56:28.976Z,8048.00
2018-06-25T08:57:28.945Z,9912.00
2018-06-25T08:58:28.904Z,10632.00
2018-06-25T08:59:28.869Z,11876.00
2018-06-25T09:00:28.853Z,13680.00
2018-06-25T09:01:28.787Z,16640.00
2018-06-25T09:02:28.765Z,17472.00
2018-06-25T09:03:28.810Z,17376.00
2018-06-25T09:04:28.758Z,15792.00
2018-06-25T09:05:28.669Z,13652.00
2018-06-25T09:06:28.630Z,12724.00
2018-06-25T09:07:28.656Z,11960.00
2018-06-25T09:08:28.544Z,11524.00
2018-06-25T09:09:28.566Z,12132.00
2018-06-25T09:10:28.496Z,15924.00
2018-06-25T09:11:28.462Z,21184.00
2018-06-25T09:12:28.440Z,25856.00
2018-06-25T09:13:28.377Z,25600.00
2018-06-25T09:14:28.337Z,22944.00
2018-06-25T09:15:28.341Z,21024.00
2018-06-25T09:16:28.273Z,20384.00
2018-06-25T09:17:28.224Z,19552.00
2018-06-25T09:18:28.190Z,19520.00
2018-06-25T09:19:28.158Z,13488.00
2018-06-25T09:20:28.115Z,11528.00
2018-06-25T09:21:28.118Z,10772.00
2018-06-25T09:22:28.044Z,11128.00
2018-06-25T09:23:28.022Z,12768.00
2018-06-25T09:24:27.980Z,16544.00
2018-06-25T09:25:27.944Z,17632.00
2018-06-25T09:26:27.942Z,16736.00
2018-06-25T09:27:27.851Z,17408.00
2018-06-25T09:28:27.836Z,17568.00
2018-06-25T09:29:27.824Z,20704.00
2018-06-25T09:30:27.764Z,25312.00
2018-06-25T09:31:27.728Z,24832.00
2018-06-25T09:32:27.742Z,32384.00
2018-06-25T09:33:27.657Z,41472.00
2018-06-25T09:34:27.612Z,24928.00
2018-06-25T09:35:27.576Z,24160.00
2018-06-25T09:36:27.548Z,23424.00
2018-06-25T09:37:27.538Z,24544.00
2018-06-25T09:38:27.494Z,24544.00
2018-06-25T09:39:27.440Z,23936.00
2018-06-25T09:40:27.440Z,22816.00
2018-06-25T09:41:27.464Z,17920.00
2018-06-25T09:42:27.405Z,17248.00
2018-06-25T09:43:27.317Z,21824.00
2018-06-25T09:44:27.274Z,27328.00
2018-06-25T09:45:27.248Z,25664.00
2018-06-25T09:46:27.225Z,24000.00
2018-06-25T09:47:27.173Z,25024.00
2018-06-25T09:48:27.188Z,48512.00
2018-06-25T09:49:27.110Z,40864.00
2018-06-25T09:50:27.089Z,63552.00
2018-06-25T09:51:27.045Z,28160.00
2018-06-25T09:52:27.040Z,21856.00
2018-06-25T09:53:27.001Z,19776.00
2018-06-25T09:54:26.953Z,18560.00
2018-06-25T09:55:26.920Z,14328.00
2018-06-25T09:56:26.885Z,14916.00
2018-06-25T09:57:26.840Z,15704.00
2018-06-25T09:58:26.852Z,13656.00
2018-06-25T09:59:26.775Z,12328.00
2018-06-25T10:00:26.761Z,11060.00
2018-06-25T10:01:26.706Z,10840.00
2018-06-25T10:02:26.681Z,10008.00
2018-06-25T10:03:26.727Z,9868.00
2018-06-25T10:04:26.641Z,9532.00
2018-06-25T10:05:26.588Z,8056.00
2018-06-25T10:06:26.553Z,8696.00
2018-06-25T10:07:26.510Z,10548.00
2018-06-25T10:08:26.476Z,14088.00
2018-06-25T10:09:26.501Z,17408.00
2018-06-25T10:10:26.489Z,18784.00
2018-06-25T10:11:26.399Z,18080.00
2018-06-25T10:12:26.361Z,17888.00
2018-06-25T10:13:26.318Z,16960.00
2018-06-25T10:14:26.329Z,15556.00
2018-06-25T10:15:26.241Z,14396.00
2018-06-25T10:16:37.187Z,12776.00
2018-06-25T10:17:26.174Z,10888.00
2018-06-25T10:18:26.255Z,9256.00
2018-06-25T10:19:26.906Z,8136.00
2018-06-25T10:20:26.118Z,7176.00
2018-06-25T10:21:26.224Z,6236.00
2018-06-25T10:22:26.059Z,5808.00
2018-06-25T10:23:26.001Z,5736.00
2018-06-25T10:24:25.970Z,5872.00
2018-06-25T10:25:25.939Z,5620.00
2018-06-25T10:26:37.383Z,5400.00
2018-06-25T10:27:25.812Z,5136.00
2018-06-25T10:28:25.829Z,5644.00
2018-06-25T10:29:25.856Z,6400.00
2018-06-25T10:30:25.755Z,6488.00
2018-06-25T10:31:25.690Z,6508.00
2018-06-25T10:32:25.697Z,6840.00
2018-06-25T10:33:25.683Z,7896.00
2018-06-25T10:34:25.585Z,9768.00
2018-06-25T10:35:25.580Z,12068.00
2018-06-25T10:36:25.529Z,14952.00
2018-06-25T10:37:25.499Z,16832.00
2018-06-25T10:38:25.462Z,17600.00
2018-06-25T10:39:25.433Z,15620.00
2018-06-25T10:40:35.279Z,12424.00
2018-06-25T10:41:25.355Z,10312.00
2018-06-25T10:42:25.365Z,8740.00
2018-06-25T10:43:25.920Z,7548.00
2018-06-25T10:44:25.267Z,6496.00
2018-06-25T10:45:25.204Z,5864.00
2018-06-25T10:46:25.153Z,6080.00
2018-06-25T10:47:25.167Z,7032.00
2018-06-25T10:48:25.095Z,8404.00
2018-06-25T10:49:25.084Z,10248.00
2018-06-25T10:50:25.052Z,12020.00
2018-06-25T10:51:24.984Z,13480.00
2018-06-25T10:52:24.957Z,15112.00
2018-06-25T10:53:24.933Z,15988.00
2018-06-25T10:54:24.943Z,16800.00
2018-06-25T10:55:24.895Z,18624.00
2018-06-25T10:56:24.824Z,20192.00
2018-06-25T10:57:24.804Z,21408.00
2018-06-25T10:58:24.746Z,21952.00
2018-06-25T10:59:24.764Z,21280.00
2018-06-25T11:00:24.695Z,21216.00
2018-06-25T11:01:24.676Z,19904.00
2018-06-25T11:02:24.606Z,17600.00
2018-06-25T11:03:24.568Z,15048.00
2018-06-25T11:04:24.541Z,13620.00
2018-06-25T11:05:24.534Z,12612.00
2018-06-25T11:06:24.473Z,11624.00
2018-06-25T11:07:24.532Z,11116.00
2018-06-25T11:08:24.392Z,11256.00
2018-06-25T11:09:24.365Z,11272.00
2018-06-25T11:10:24.327Z,11168.00
2018-06-25T11:11:24.333Z,10904.00
2018-06-25T11:12:24.251Z,11412.00
2018-06-25T11:13:24.214Z,12372.00
2018-06-25T11:14:24.233Z,13812.00
2018-06-25T11:15:24.181Z,15220.00
2018-06-25T11:16:24.126Z,15916.00
2018-06-25T11:17:24.078Z,17760.00
2018-06-25T11:18:24.084Z,19040.00
2018-06-25T11:19:24.020Z,19712.00
2018-06-25T11:20:24.038Z,19488.00
2018-06-25T11:21:23.924Z,19328.00
2018-06-25T11:22:23.940Z,18496.00
2018-06-25T11:23:23.885Z,17856.00
2018-06-25T11:24:23.839Z,17408.00
2018-06-25T11:25:23.805Z,17088.00
2018-06-25T11:26:23.768Z,16288.00
2018-06-25T11:27:23.874Z,15064.00
2018-06-25T11:28:23.703Z,14204.00
2018-06-25T11:29:23.661Z,13428.00
2018-06-25T11:30:23.626Z,12884.00
2018-06-25T11:31:23.631Z,12596.00
2018-06-25T11:32:23.588Z,12252.00
2018-06-25T11:33:23.544Z,12144.00
2018-06-25T11:34:23.483Z,12300.00
2018-06-25T11:35:23.457Z,12788.00
2018-06-25T11:36:23.477Z,13564.00
2018-06-25T11:37:23.382Z,14696.00
2018-06-25T11:38:23.411Z,15072.00
2018-06-25T11:39:23.367Z,15112.00
2018-06-25T11:40:23.294Z,15344.00
2018-06-25T11:41:23.236Z,15612.00
2018-06-25T11:42:23.217Z,16640.00
2018-06-25T11:43:23.212Z,17216.00
2018-06-25T11:44:23.175Z,18656.00
2018-06-25T11:45:23.130Z,19232.00
2018-06-25T11:46:23.076Z,19232.00
2018-06-25T11:47:23.073Z,19360.00
2018-06-25T11:48:23.046Z,19968.00
2018-06-25T11:49:22.981Z,20736.00
2018-06-25T11:50:22.952Z,20832.00
2018-06-25T11:51:22.921Z,20032.00
2018-06-25T11:52:33.416Z,18688.00
2018-06-25T11:53:22.823Z,17920.00
2018-06-25T11:54:22.899Z,17920.00
2018-06-25T11:55:22.771Z,18432.00
2018-06-25T11:56:22.740Z,18784.00
2018-06-25T11:57:22.687Z,18720.00
2018-06-25T11:58:22.659Z,18144.00
2018-06-25T11:59:22.660Z,16736.00
2018-06-25T12:00:22.602Z,16256.00
2018-06-25T12:01:22.579Z,15872.00
2018-06-25T12:02:22.561Z,16224.00
2018-06-25T12:03:22.534Z,16192.00
2018-06-25T12:04:22.497Z,16096.00
2018-06-25T12:05:22.471Z,15360.00
2018-06-25T12:06:22.384Z,16928.00
2018-06-25T12:07:22.400Z,17568.00
2018-06-25T12:08:22.328Z,17664.00
2018-06-25T12:09:22.322Z,17504.00
2018-06-25T12:10:22.258Z,17600.00
2018-06-25T12:11:22.217Z,18048.00
2018-06-25T12:12:22.197Z,18048.00
2018-06-25T12:13:22.178Z,18016.00
2018-06-25T12:14:22.212Z,18656.00
2018-06-25T12:15:22.115Z,19264.00
2018-06-25T12:16:22.056Z,19776.00
2018-06-25T12:17:22.103Z,20352.00
2018-06-25T12:18:22.016Z,21728.00
2018-06-25T12:19:21.938Z,23968.00